Time;durP1;ratioP1;P1;durP2;ratioP2;P2;SDS_P1;SDS_P2;PMS_P1;PMS_P2;Temp;Humidity;BMP_temperature;BMP_pressure;BME280_temperature;BME280_humidity;BME280_pressure;Samples;Min_cycle;Max_cycle;Signal;HPM_P1;HPM_P2
2022/12/26 00:00:28;;;;;;;86.60;23.40;;;;;;;8.02;100.00;100923.41;6182181;23;20001;-87
2022/12/26 00:02:54;;;;;;;77.03;23.77;;;;;;;8.08;100.00;100931.50;6182660;23;20083;-86
2022/12/26 00:05:19;;;;;;;89.73;23.07;;;;;;;8.10;100.00;100918.72;6182907;23;20009;-88
2022/12/26 00:07:44;;;;;;;80.70;22.67;;;;;;;8.13;100.00;100936.94;6183282;23;20088;-87
2022/12/26 00:10:10;;;;;;;79.80;23.63;;;;;;;8.13;100.00;100929.72;6182787;23;20088;-88
2022/12/26 00:12:38;;;;;;;85.00;23.58;;;;;;;8.20;100.00;100934.94;6181256;23;20008;-88
2022/12/26 00:15:03;;;;;;;87.23;23.73;;;;;;;8.22;100.00;100930.16;6183382;23;20025;-87
2022/12/26 00:17:29;;;;;;;92.35;24.95;;;;;;;8.28;100.00;100941.75;6183145;23;20008;-88
2022/12/26 00:19:54;;;;;;;88.70;24.50;;;;;;;8.31;100.00;100942.06;6181552;23;20009;-87
2022/12/26 00:22:20;;;;;;;96.70;24.45;;;;;;;8.27;100.00;100937.47;6183060;23;20085;-89
2022/12/26 00:24:46;;;;;;;97.77;25.10;;;;;;;8.30;100.00;100948.47;6182501;23;20005;-87
2022/12/26 00:27:11;;;;;;;103.20;27.63;;;;;;;8.33;100.00;100955.16;6182210;23;20009;-87
2022/12/26 00:29:36;;;;;;;94.40;26.13;;;;;;;8.33;100.00;100957.84;6182654;23;20246;-86
2022/12/26 00:32:02;;;;;;;100.60;26.23;;;;;;;8.32;100.00;100965.06;6182059;23;20418;-87
2022/12/26 00:34:27;;;;;;;101.70;27.13;;;;;;;8.32;100.00;100973.06;6183122;23;20441;-87
2022/12/26 00:36:53;;;;;;;106.67;29.00;;;;;;;8.33;100.00;100980.03;6183425;23;20370;-86
2022/12/26 00:39:18;;;;;;;106.30;27.45;;;;;;;8.30;100.00;100967.16;6182812;23;20473;-87
2022/12/26 00:41:43;;;;;;;101.73;26.87;;;;;;;8.32;100.00;100983.75;6181085;23;20024;-87
2022/12/26 00:44:09;;;;;;;110.53;27.33;;;;;;;8.29;100.00;100962.84;6182544;23;20001;-87
2022/12/26 00:46:34;;;;;;;105.83;27.27;;;;;;;8.29;100.00;100951.38;6182703;23;20422;-88
2022/12/26 00:48:59;;;;;;;103.03;26.37;;;;;;;8.28;100.00;100969.25;6182803;23;20716;-87
2022/12/26 00:51:25;;;;;;;101.73;27.33;;;;;;;8.24;100.00;100965.44;6182038;23;20693;-87
2022/12/26 00:53:50;;;;;;;99.23;27.43;;;;;;;8.24;100.00;100973.44;6183032;23;20009;-87
2022/12/26 00:56:16;;;;;;;104.40;27.97;;;;;;;8.18;100.00;100977.88;6183317;23;20032;-88
2022/12/26 00:58:41;;;;;;;101.93;27.50;;;;;;;8.22;100.00;100985.41;6180786;23;20249;-87
2022/12/26 01:01:14;;;;;;;102.70;27.73;;;;;;;8.21;100.00;100978.44;6182020;23;20001;-87
2022/12/26 01:03:40;;;;;;;98.45;28.17;;;;;;;8.21;100.00;100989.13;6182309;23;20437;-87
2022/12/26 01:06:05;;;;;;;94.90;27.33;;;;;;;8.21;100.00;100984.63;6156307;23;20001;-87
2022/12/26 01:08:31;;;;;;;105.70;27.53;;;;;;;8.18;100.00;100959.19;6182732;23;20092;-87
2022/12/26 01:10:57;;;;;;;96.20;27.52;;;;;;;8.20;100.00;100966.97;6181751;23;20410;-87
2022/12/26 01:13:22;;;;;;;98.77;26.93;;;;;;;8.18;100.00;100980.53;6182151;23;20001;-87
2022/12/26 01:15:51;;;;;;;98.07;25.87;;;;;;;8.19;100.00;100995.50;6181864;23;20000;-87
2022/12/26 01:18:17;;;;;;;92.88;28.00;;;;;;;8.18;100.00;100985.09;6182493;23;20005;-87
2022/12/26 01:20:42;;;;;;;92.10;25.80;;;;;;;8.16;100.00;100995.19;6182105;23;20299;-87
2022/12/26 01:23:07;;;;;;;98.40;26.27;;;;;;;8.20;100.00;101004.34;6182152;23;20046;-86
2022/12/26 01:25:33;;;;;;;98.68;26.63;;;;;;;8.21;100.00;100997.97;6182132;23;20009;-87
2022/12/26 01:27:58;;;;;;;95.73;25.90;;;;;;;8.20;100.00;100988.34;6182507;23;20497;-88
2022/12/26 01:30:23;;;;;;;99.47;27.33;;;;;;;8.19;100.00;100986.72;6181633;23;20009;-87
2022/12/26 01:32:49;;;;;;;105.73;28.63;;;;;;;8.16;100.00;100979.97;6181650;23;20008;-87
2022/12/26 01:35:14;;;;;;;105.20;27.73;;;;;;;8.12;100.00;100986.84;6182436;23;20005;-87
2022/12/26 01:37:39;;;;;;;104.50;27.77;;;;;;;8.14;100.00;100999.94;6182217;23;20012;-87
2022/12/26 01:40:05;;;;;;;100.65;28.33;;;;;;;8.13;100.00;100991.13;6182272;23;20005;-87
2022/12/26 01:42:37;;;;;;;93.07;26.40;;;;;;;8.10;100.00;100983.59;6181038;23;20009;-87
2022/12/26 01:45:05;;;;;;;91.00;27.13;;;;;;;8.11;100.00;100987.06;6182226;23;20483;-88
2022/12/26 01:47:52;;;;;;;94.45;27.10;;;;;;;8.10;100.00;100990.78;6181605;23;20430;-87
2022/12/26 01:50:32;;;;;;;88.75;25.73;;;;;;;8.06;100.00;100987.78;6181414;23;20009;-87
2022/12/26 01:53:03;;;;;;;82.90;26.10;;;;;;;7.96;100.00;100991.06;6182280;23;20012;-87
2022/12/26 01:55:34;;;;;;;78.70;24.30;;;;;;;7.91;100.00;100982.94;6182352;23;20005;-87
2022/12/26 01:58:05;;;;;;;85.83;25.47;;;;;;;7.86;100.00;100993.50;6181891;23;20328;-87
2022/12/26 02:00:32;;;;;;;81.45;24.02;;;;;;;7.85;100.00;100991.91;6181900;23;20012;-87
2022/12/26 02:05:42;;;;;;;69.38;22.88;;;;;;;7.65;100.00;100990.44;6181953;23;20040;-88
2022/12/26 02:08:14;;;;;;;71.30;21.92;;;;;;;7.54;100.00;100991.25;6181490;23;20492;-87
2022/12/26 02:11:05;;;;;;;66.93;22.50;;;;;;;7.44;100.00;100991.81;6180802;23;20031;-87
2022/12/26 02:13:33;;;;;;;57.87;20.80;;;;;;;7.37;100.00;100996.47;6180438;23;20266;-87
2022/12/26 02:15:58;;;;;;;62.30;21.73;;;;;;;7.31;100.00;100987.53;6182191;23;20016;-87
2022/12/26 02:18:23;;;;;;;63.97;21.63;;;;;;;7.33;100.00;100990.78;6182138;23;20009;-87
2022/12/26 02:21:13;;;;;;;59.27;21.03;;;;;;;7.39;100.00;101003.19;6181256;23;20237;-87
2022/12/26 02:23:38;;;;;;;63.40;21.58;;;;;;;7.49;100.00;100996.44;6181410;23;19997;-88
2022/12/26 02:26:13;;;;;;;59.30;20.87;;;;;;;7.50;100.00;101003.41;6181676;23;20009;-89
2022/12/26 02:28:56;;;;;;;63.70;20.90;;;;;;;7.58;100.00;101001.19;6181451;23;20009;-88
2022/12/26 02:31:24;;;;;;;61.17;21.13;;;;;;;7.68;100.00;101008.59;6180700;23;20704;-88
2022/12/26 02:34:30;;;;;;;70.40;21.98;;;;;;;7.70;100.00;100993.19;6181435;23;20426;-88
2022/12/26 02:37:04;;;;;;;66.72;22.70;;;;;;;7.78;100.00;100996.56;6181682;23;20001;-88
2022/12/26 02:39:45;;;;;;;66.03;22.55;;;;;;;7.79;100.00;100998.19;6181225;23;20019;-88
2022/12/26 02:42:46;;;;;;;61.17;20.20;;;;;;;7.77;100.00;100995.72;6181517;23;20005;-87
2022/12/26 02:48:44;;;;;;;59.53;20.00;;;;;;;7.76;100.00;101014.66;6181579;23;20720;-88
2022/12/26 03:14:59;;;;;;;39.83;16.70;;;;;;;7.41;100.00;101005.59;6183610;23;20083;-87
2022/12/26 03:17:36;;;;;;;39.45;15.18;;;;;;;7.31;100.00;101010.72;6159593;23;20067;-87
2022/12/26 03:20:04;;;;;;;42.37;15.93;;;;;;;7.26;100.00;101016.75;6183355;23;20016;-87
2022/12/26 03:22:40;;;;;;;39.20;14.60;;;;;;;7.16;100.00;101014.66;6182759;23;20248;-87
2022/12/26 03:28:10;;;;;;;34.60;14.70;;;;;;;7.29;100.00;100986.97;6182696;23;20571;-87
2022/12/26 03:30:48;;;;;;;39.13;15.07;;;;;;;7.39;100.00;100995.19;6182546;23;20009;-87
2022/12/26 03:36:01;;;;;;;38.72;14.38;;;;;;;7.45;100.00;100977.44;6182702;23;20020;-87
2022/12/26 04:19:22;;;;;;;37.60;13.98;;;;;;;7.49;100.00;100983.13;6182994;23;20020;-87
2022/12/26 04:20:42;;;;;;;31.77;11.55;;;;;;;7.07;100.00;101054.16;6181864;23;20020;-86
2022/12/26 04:46:01;;;;;;;27.77;10.65;;;;;;;6.99;100.00;101011.84;6183178;23;20016;-88
2022/12/26 04:51:10;;;;;;;30.30;10.18;;;;;;;6.95;100.00;101000.00;6181726;23;20016;-86
2022/12/26 04:53:35;;;;;;;27.47;10.53;;;;;;;6.97;100.00;101001.41;6181958;23;20009;-85
2022/12/26 04:56:01;;;;;;;30.10;12.47;;;;;;;6.96;100.00;100996.31;6182784;23;20082;-86
2022/12/26 04:58:26;;;;;;;34.13;11.53;;;;;;;6.94;100.00;100998.38;6182902;23;20012;-86
2022/12/26 05:09:32;;;;;;;28.07;10.33;;;;;;;6.90;100.00;101003.38;6181535;23;20009;-86
2022/12/26 05:11:48;;;;;;;37.00;10.50;;;;;;;6.79;100.00;101009.50;6180269;23;20020;-86
2022/12/26 05:14:14;;;;;;;38.87;11.97;;;;;;;6.81;100.00;101020.72;6182834;23;20232;-86
2022/12/26 05:30:23;;;;;;;34.95;10.32;;;;;;;6.81;100.00;101036.72;6181184;23;20024;-85
2022/12/26 05:35:34;;;;;;;30.08;9.85;;;;;;;6.75;100.00;101029.63;6181684;23;20066;-87
2022/12/26 05:38:00;;;;;;;36.05;10.07;;;;;;;6.73;100.00;101005.06;6181606;23;20016;-87
2022/12/26 05:40:25;;;;;;;28.05;9.20;;;;;;;6.74;100.00;101025.34;6182218;23;20009;-86
2022/12/26 05:42:50;;;;;;;27.23;9.50;;;;;;;6.72;100.00;101009.59;6181266;23;20331;-86
2022/12/26 05:45:16;;;;;;;28.50;9.33;;;;;;;6.66;100.00;101011.28;6181982;23;20009;-86
2022/12/26 05:47:41;;;;;;;28.17;9.10;;;;;;;6.68;100.00;101008.41;6181038;23;20005;-85
2022/12/26 05:50:07;;;;;;;30.13;9.33;;;;;;;6.59;100.00;100991.94;6181117;23;20032;-85
2022/12/26 05:52:32;;;;;;;28.25;8.98;;;;;;;6.57;100.00;100987.91;6180756;23;20487;-85
2022/12/26 05:54:57;;;;;;;32.73;9.33;;;;;;;6.54;100.00;100993.66;6181644;23;20005;-85
2022/12/26 05:57:22;;;;;;;28.43;8.90;;;;;;;6.47;100.00;100983.91;6181058;23;20013;-85
2022/12/26 05:59:48;;;;;;;34.67;10.47;;;;;;;6.54;100.00;100989.16;6181558;23;20009;-85
2022/12/26 06:02:13;;;;;;;27.33;8.80;;;;;;;6.51;100.00;100997.56;6181303;23;20005;-84
2022/12/26 06:04:38;;;;;;;25.27;8.23;;;;;;;6.46;100.00;100994.81;6181305;23;20736;-84
2022/12/26 06:07:04;;;;;;;29.00;8.83;;;;;;;6.46;100.00;101008.13;6181303;23;20088;-86
2022/12/26 06:09:29;;;;;;;27.77;8.35;;;;;;;6.53;100.00;101008.03;6181117;23;20013;-86
2022/12/26 06:11:54;;;;;;;28.83;8.77;;;;;;;6.59;100.00;101017.75;6182092;23;20001;-86
2022/12/26 06:14:20;;;;;;;24.80;8.73;;;;;;;6.70;100.00;101026.81;6182199;23;20005;-85
2022/12/26 06:16:45;;;;;;;30.70;9.50;;;;;;;6.80;100.00;101033.22;6181241;23;20334;-88
2022/12/26 06:19:10;;;;;;;29.50;8.97;;;;;;;6.88;100.00;101031.28;6181690;23;20013;-88
2022/12/26 06:21:36;;;;;;;31.43;8.83;;;;;;;6.94;100.00;101033.00;6181367;23;20009;-89
2022/12/26 06:24:01;;;;;;;28.13;9.30;;;;;;;6.97;100.00;101040.56;6181474;23;20052;-88
2022/12/26 06:26:26;;;;;;;28.48;7.78;;;;;;;7.02;100.00;101035.38;6181789;23;20393;-89
2022/12/26 06:28:51;;;;;;;31.00;9.53;;;;;;;7.01;100.00;101044.41;6177753;23;20015;-88
2022/12/26 06:31:20;;;;;;;27.00;9.07;;;;;;;6.96;100.00;101046.94;6180917;23;20068;-89
2022/12/26 06:33:47;;;;;;;27.40;10.13;;;;;;;6.91;100.00;101033.50;6181800;23;20005;-88
2022/12/26 06:36:15;;;;;;;22.60;8.50;;;;;;;6.86;100.00;101050.13;6180533;23;20005;-89
2022/12/26 06:38:41;;;;;;;23.97;8.47;;;;;;;6.85;100.00;101063.69;6181339;23;20422;-89
2022/12/26 06:41:09;;;;;;;21.92;8.60;;;;;;;6.85;100.00;101069.03;6181698;23;20001;-90
2022/12/26 06:43:35;;;;;;;21.33;8.45;;;;;;;6.77;100.00;101051.50;6183953;23;20024;-90
2022/12/26 06:46:03;;;;;;;20.58;8.00;;;;;;;6.73;100.00;101059.16;6184356;23;20009;-89
2022/12/26 06:48:29;;;;;;;17.13;7.63;;;;;;;6.65;100.00;101054.13;6183666;23;20096;-89
2022/12/26 06:50:55;;;;;;;21.43;8.87;;;;;;;6.63;100.00;101051.72;6156570;23;20240;-89
2022/12/26 06:53:22;;;;;;;23.40;8.40;;;;;;;6.58;100.00;101048.06;6183861;23;20009;-89
2022/12/26 06:55:48;;;;;;;19.25;7.88;;;;;;;6.51;100.00;101049.00;6184186;23;20000;-89
2022/12/26 06:58:15;;;;;;;20.03;8.07;;;;;;;6.42;100.00;101045.00;6183427;23;20027;-88
2022/12/26 07:00:41;;;;;;;18.98;8.95;;;;;;;6.42;100.00;101045.00;6182898;23;20001;-89
2022/12/26 07:03:06;;;;;;;19.27;8.63;;;;;;;6.41;100.00;101054.03;6183720;23;20012;-89
2022/12/26 07:05:35;;;;;;;20.70;8.67;;;;;;;6.39;100.00;101056.09;6156736;23;20036;-89
2022/12/26 07:08:00;;;;;;;21.10;8.80;;;;;;;6.39;100.00;101045.44;6183090;23;20011;-89
2022/12/26 07:10:31;;;;;;;23.57;8.00;;;;;;;6.37;100.00;101044.88;6182811;23;20087;-88
2022/12/26 07:12:59;;;;;;;21.00;8.50;;;;;;;6.41;100.00;101054.03;6183292;23;20005;-87
2022/12/26 07:15:25;;;;;;;20.20;7.63;;;;;;;6.38;100.00;101049.16;6183100;23;20033;-89
2022/12/26 07:17:51;;;;;;;21.13;8.20;;;;;;;6.36;100.00;101053.91;6180459;23;20063;-88
2022/12/26 07:20:16;;;;;;;18.05;7.82;;;;;;;6.32;100.00;101050.84;6183499;23;20025;-88
2022/12/26 07:22:42;;;;;;;16.47;7.63;;;;;;;6.30;100.00;101058.25;6156218;23;20421;-89
2022/12/26 07:25:08;;;;;;;17.30;8.20;;;;;;;6.33;100.00;101057.00;6182851;23;20004;-89
2022/12/26 07:27:33;;;;;;;17.02;7.38;;;;;;;6.26;100.00;101053.59;6181667;23;20009;-88
2022/12/26 07:29:58;;;;;;;19.00;8.27;;;;;;;6.29;100.00;101058.47;6182296;23;20091;-88
2022/12/26 07:32:24;;;;;;;16.67;7.23;;;;;;;6.29;100.00;101055.81;6182065;23;20680;-87
2022/12/26 07:34:49;;;;;;;23.17;7.82;;;;;;;6.29;100.00;101058.47;6182481;23;19997;-87
2022/12/26 07:37:14;;;;;;;23.37;7.97;;;;;;;6.31;100.00;101043.91;6157571;23;20393;-88
2022/12/26 07:39:39;;;;;;;18.27;8.07;;;;;;;6.26;100.00;101049.09;6181662;22;20084;-88
2022/12/26 07:42:05;;;;;;;22.13;8.30;;;;;;;6.34;100.00;101066.63;6183206;23;20019;-88
2022/12/26 07:44:31;;;;;;;15.97;7.23;;;;;;;6.26;100.00;101083.69;6182739;23;20071;-88
2022/12/26 07:46:58;;;;;;;17.33;7.55;;;;;;;6.24;100.00;101075.13;6181838;23;20001;-87
2022/12/26 07:49:23;;;;;;;22.20;7.65;;;;;;;6.25;100.00;101070.59;6183650;23;20005;-87
2022/12/26 07:51:49;;;;;;;17.27;7.17;;;;;;;6.26;100.00;101072.22;6182426;23;20131;-87
2022/12/26 07:54:15;;;;;;;19.80;7.57;;;;;;;6.28;100.00;101070.16;6182630;23;20059;-88
2022/12/26 07:56:41;;;;;;;19.40;7.90;;;;;;;6.25;100.00;101065.28;6182841;23;20001;-89
2022/12/26 07:59:11;;;;;;;25.37;7.73;;;;;;;6.31;100.00;101081.16;6181022;23;20263;-89
2022/12/26 08:01:37;;;;;;;24.08;7.55;;;;;;;6.25;100.00;101081.25;6181757;23;20033;-90
2022/12/26 08:04:02;;;;;;;21.63;8.70;;;;;;;6.36;100.00;101088.50;6182190;23;20441;-90
2022/12/26 08:06:27;;;;;;;20.93;8.07;;;;;;;6.36;100.00;101083.97;6181533;23;20009;-91
2022/12/26 08:08:58;;;;;;;17.53;7.90;;;;;;;6.35;100.00;101086.88;6182945;23;20004;-89
2022/12/26 08:11:48;;;;;;;22.55;9.23;;;;;;;6.30;100.00;101068.09;6183330;23;20433;-90
2022/12/26 08:14:17;;;;;;;14.25;7.07;;;;;;;6.36;100.00;101089.31;6183977;23;20012;-93
2022/12/26 08:16:43;;;;;;;14.77;8.02;;;;;;;6.38;100.00;101086.44;6183890;23;20012;-91
2022/12/26 08:19:09;;;;;;;20.10;7.47;;;;;;;6.38;100.00;101086.44;6182256;23;20009;-89
2022/12/26 08:21:34;;;;;;;16.05;7.05;;;;;;;6.38;100.00;101093.59;6180779;23;20430;-90
2022/12/26 08:24:00;;;;;;;19.33;7.40;;;;;;;6.45;100.00;101091.69;6186677;23;20007;-91
2022/12/26 08:26:25;;;;;;;20.67;7.50;;;;;;;6.51;100.00;101080.13;6187789;23;20012;-91
2022/12/26 08:28:51;;;;;;;16.97;8.30;;;;;;;6.63;100.00;101085.50;6184415;23;20233;-90
2022/12/26 08:31:18;;;;;;;16.30;8.13;;;;;;;6.74;100.00;101084.75;6184095;23;20008;-90
2022/12/26 08:33:44;;;;;;;18.17;8.18;;;;;;;6.81;100.00;101088.13;6183389;23;20040;-93
2022/12/26 08:36:11;;;;;;;19.33;7.75;;;;;;;6.86;100.00;101082.09;6181496;23;20009;-91
2022/12/26 08:38:37;;;;;;;19.30;7.43;;;;;;;6.96;100.00;101084.22;6182708;23;20008;-95
2022/12/26 08:41:03;;;;;;;20.33;7.50;;;;;;;7.01;100.00;101094.22;6182977;23;20004;-92
2022/12/26 08:43:28;;;;;;;17.38;7.43;;;;;;;7.11;100.00;101105.97;6194019;23;20075;-92
2022/12/26 08:46:05;;;;;;;21.37;7.40;;;;;;;7.22;100.00;101109.66;6190230;23;20009;-91
2022/12/26 08:48:31;;;;;;;16.83;7.38;;;;;;;7.31;100.00;101120.81;6187546;23;20016;-91
2022/12/26 08:50:59;;;;;;;16.00;6.90;;;;;;;7.34;100.00;101111.56;6186287;23;20032;-93
2022/12/26 08:53:31;;;;;;;17.80;6.45;;;;;;;7.35;100.00;101122.00;6190793;23;20079;-93
2022/12/26 08:55:57;;;;;;;12.20;6.50;;;;;;;7.42;100.00;101116.56;6186958;23;20016;-89
2022/12/26 08:58:23;;;;;;;13.57;5.47;;;;;;;7.47;100.00;101116.69;6184051;23;20283;-92
2022/12/26 09:00:48;;;;;;;11.77;5.10;;;;;;;7.58;100.00;101123.06;6185136;23;20028;-92
2022/12/26 09:03:14;;;;;;;13.00;5.60;;;;;;;7.69;100.00;101127.59;6186719;23;20448;-91
2022/12/26 09:05:40;;;;;;;12.68;4.75;;;;;;;7.73;100.00;101122.63;6184374;23;20025;-93
2022/12/26 09:08:05;;;;;;;13.50;4.93;;;;;;;7.77;100.00;101128.31;6182646;23;20011;-90
2022/12/26 09:10:31;;;;;;;10.52;4.50;;;;;;;7.83;100.00;101132.72;6180367;23;20076;-93
2022/12/26 09:12:57;;;;;;;9.17;4.13;;;;;;;7.91;100.00;101136.91;6181693;23;20005;-92
2022/12/26 09:15:22;;;;;;;8.88;4.28;;;;;;;7.96;100.00;101137.84;6183932;23;19993;-92
2022/12/26 09:17:47;;;;;;;10.83;3.63;;;;;;;7.99;100.00;101121.34;6182411;23;20437;-94
2022/12/26 09:20:13;;;;;;;7.13;3.17;;;;;;;8.01;100.00;101140.63;6183433;23;20005;-93
2022/12/26 09:22:50;;;;;;;6.73;3.33;;;;;;;8.06;100.00;101139.91;6184675;23;20009;-93
2022/12/26 09:25:25;;;;;;;6.75;2.88;;;;;;;8.16;100.00;101131.31;6184385;23;20015;-91
2022/12/26 09:27:52;;;;;;;8.38;2.92;;;;;;;8.25;100.00;101145.13;6184256;23;20088;-93
2022/12/26 09:30:18;;;;;;;8.60;2.58;;;;;;;8.31;100.00;101141.50;6183583;23;20012;-92
2022/12/26 09:32:44;;;;;;;10.53;2.50;;;;;;;8.32;100.00;101151.97;6182851;23;20005;-93
2022/12/26 09:35:09;;;;;;;12.35;2.95;;;;;;;8.32;100.00;101149.28;6183422;23;20005;-92
2022/12/26 09:37:34;;;;;;;8.00;2.37;;;;;;;8.38;100.00;101149.41;6183019;23;20009;-92
2022/12/26 09:40:00;;;;;;;9.13;2.30;;;;;;;8.39;100.00;101167.06;6182659;23;20023;-91
2022/12/26 09:42:31;;;;;;;4.80;2.50;;;;;;;8.41;100.00;101149.75;6182303;23;20005;-92
2022/12/26 09:45:11;;;;;;;6.03;2.47;;;;;;;8.37;100.00;101169.16;6183122;23;20048;-92
2022/12/26 09:48:14;;;;;;;6.63;2.10;;;;;;;8.40;100.00;101174.03;6190684;22;20449;-91
2022/12/26 09:50:54;;;;;;;3.45;2.10;;;;;;;8.20;100.00;101164.53;6155661;23;20055;-92
2022/12/26 09:53:53;;;;;;;7.80;1.87;;;;;;;8.18;100.00;101183.41;6105894;23;20006;-92
2022/12/26 09:59:51;;;;;;;6.55;1.60;;;;;;;8.13;100.00;101193.19;6018355;23;20022;-92
2022/12/26 10:09:04;;;;;;;7.68;1.98;;;;;;;8.10;100.00;101199.81;6184780;22;20025;-92
2022/12/26 10:11:50;;;;;;;6.73;2.00;;;;;;;8.03;100.00;101201.75;6182200;23;20009;-92
2022/12/26 10:14:20;;;;;;;5.47;2.10;;;;;;;8.07;100.00;101204.78;6187246;23;20316;-96
2022/12/26 10:17:16;;;;;;;9.15;2.03;;;;;;;8.12;100.00;101205.72;6185651;23;20005;-95
2022/12/26 10:19:57;;;;;;;4.68;2.20;;;;;;;8.19;100.00;101210.94;6155438;23;20350;-92
2022/12/26 10:22:46;;;;;;;5.20;2.30;;;;;;;8.20;100.00;101209.91;6156994;23;20008;-93
2022/12/26 10:25:23;;;;;;;5.53;2.20;;;;;;;8.16;100.00;101216.75;6188272;23;20040;-94
2022/12/26 10:27:50;;;;;;;4.70;2.00;;;;;;;8.11;100.00;101213.94;6203166;23;20009;-94
2022/12/26 10:30:33;;;;;;;5.80;2.20;;;;;;;8.12;100.00;101215.56;6205855;23;20271;-96
2022/12/26 10:33:03;;;;;;;5.38;2.20;;;;;;;8.09;100.00;101216.88;6202544;23;19997;-93
2022/12/26 10:35:31;;;;;;;7.53;2.30;;;;;;;8.18;100.00;101222.66;6202940;23;20074;-94
2022/12/26 10:38:10;;;;;;;9.25;2.50;;;;;;;8.22;100.00;101209.66;6199937;23;20032;-95
2022/12/26 10:40:40;;;;;;;8.80;2.28;;;;;;;8.29;100.00;101239.72;6191125;23;20015;-94
2022/12/26 10:43:30;;;;;;;13.77;2.47;;;;;;;8.21;100.00;101275.59;6190578;23;20005;-91
2022/12/26 10:46:22;;;;;;;3.73;1.37;;;;;;;7.87;100.00;101264.63;6200023;23;20004;-93
2022/12/26 10:48:47;;;;;;;5.85;1.45;;;;;;;7.64;100.00;101279.53;6200819;23;20509;-90
2022/12/26 10:51:14;;;;;;;9.43;1.80;;;;;;;7.51;100.00;101285.03;6194584;23;20005;-92
2022/12/26 10:53:47;;;;;;;6.70;1.37;;;;;;;7.46;100.00;101276.91;6184442;23;20707;-92
2022/12/26 10:56:13;;;;;;;6.38;1.67;;;;;;;7.39;100.00;101279.66;6181969;23;20047;-92
2022/12/26 10:58:40;;;;;;;5.97;1.40;;;;;;;7.42;100.00;101289.88;6182092;23;20009;-90
2022/12/26 11:01:27;;;;;;;6.28;1.42;;;;;;;7.45;100.00;101286.75;6182606;23;20009;-90
2022/12/26 11:04:01;;;;;;;4.47;1.30;;;;;;;7.45;100.00;101292.09;6184415;23;20028;-90
2022/12/26 11:06:51;;;;;;;7.53;1.73;;;;;;;7.35;100.00;101297.94;6184536;23;20035;-90
2022/12/26 11:09:41;;;;;;;6.33;1.87;;;;;;;7.41;100.00;101309.56;6188899;23;20005;-89
2022/12/26 11:12:19;;;;;;;16.90;2.10;;;;;;;7.44;100.00;101301.13;6185568;23;20001;-90
2022/12/26 11:14:45;;;;;;;12.32;2.13;;;;;;;7.51;100.00;101317.03;6156613;23;20419;-90
2022/12/26 11:17:22;;;;;;;12.88;2.40;;;;;;;7.50;100.00;101315.41;6183047;23;20012;-91
2022/12/26 11:19:47;;;;;;;12.45;1.77;;;;;;;7.45;100.00;101325.94;6181324;23;20060;-91
2022/12/26 11:22:23;;;;;;;8.57;2.03;;;;;;;7.46;100.00;101332.91;6184652;23;20005;-91
2022/12/26 11:25:08;;;;;;;10.30;2.15;;;;;;;7.52;100.00;101330.16;6183695;23;20334;-92
2022/12/26 11:27:33;;;;;;;10.33;2.00;;;;;;;7.41;100.00;101326.41;6183615;23;20059;-92
2022/12/26 11:30:15;;;;;;;11.47;1.90;;;;;;;7.36;100.00;101347.56;6193583;23;20244;-90
2022/12/26 11:32:43;;;;;;;17.20;1.85;;;;;;;7.07;100.00;101335.78;6160134;23;20005;-91
2022/12/26 11:35:24;;;;;;;11.70;2.30;;;;;;;6.91;100.00;101329.22;6185126;23;20005;-91
2022/12/26 11:37:53;;;;;;;14.73;2.07;;;;;;;6.88;100.00;101330.44;6185283;23;20771;-90
2022/12/26 11:40:24;;;;;;;12.48;1.80;;;;;;;6.70;100.00;101338.41;6185849;23;20013;-90
2022/12/26 11:42:57;;;;;;;9.75;2.40;;;;;;;6.53;100.00;101340.84;6186331;23;20012;-94
2022/12/26 11:45:26;;;;;;;10.80;1.50;;;;;;;6.32;100.00;101346.31;6188597;23;20005;-91
2022/12/26 11:47:54;;;;;;;8.07;1.70;;;;;;;6.20;100.00;101346.22;6186558;23;20012;-90
2022/12/26 11:50:23;;;;;;;11.47;1.73;;;;;;;6.11;100.00;101354.66;6182805;23;20083;-91
2022/12/26 11:52:52;;;;;;;13.63;1.80;;;;;;;6.06;100.00;101355.28;6185151;23;20232;-95
2022/12/26 11:55:45;;;;;;;16.08;1.63;;;;;;;6.06;100.00;101368.59;6185440;23;20487;-93
2022/12/26 11:58:19;;;;;;;11.10;1.70;;;;;;;6.04;100.00;101374.13;6181702;23;20017;-94
2022/12/26 12:00:53;;;;;;;16.48;1.80;;;;;;;6.05;100.00;101380.25;6183846;23;20005;-94
2022/12/26 12:03:41;;;;;;;9.27;1.58;;;;;;;6.04;100.00;101387.44;6185938;23;20005;-95
2022/12/26 12:06:15;;;;;;;12.27;1.67;;;;;;;6.09;100.00;101386.78;6185588;23;20005;-94
2022/12/26 12:09:15;;;;;;;13.77;1.53;;;;;;;6.12;100.00;101391.69;6183409;23;20256;-94
2022/12/26 12:11:48;;;;;;;11.10;1.27;;;;;;;6.15;100.00;101388.59;6184263;23;20021;-94
2022/12/26 12:14:33;;;;;;;12.93;1.92;;;;;;;6.18;100.00;101384.69;6185018;23;20080;-94
2022/12/26 12:17:20;;;;;;;12.82;1.70;;;;;;;6.16;100.00;101381.41;6186537;23;20009;-95
2022/12/26 12:19:56;;;;;;;10.82;1.70;;;;;;;6.20;100.00;101399.44;6185193;23;20444;-93
2022/12/26 12:22:38;;;;;;;10.23;1.70;;;;;;;6.28;100.00;101390.38;6187335;23;20540;-93
2022/12/26 12:25:25;;;;;;;12.40;1.87;;;;;;;6.25;100.00;101389.97;6187729;23;20012;-95
2022/12/26 12:27:58;;;;;;;14.68;1.70;;;;;;;6.18;100.00;101390.84;6189170;23;20005;-95
2022/12/26 12:30:48;;;;;;;11.70;1.92;;;;;;;6.12;100.00;101393.53;6187887;23;20058;-94
2022/12/26 12:33:38;;;;;;;12.40;2.28;;;;;;;6.10;100.00;101398.25;6189667;23;20005;-95
2022/12/26 12:39:13;;;;;;;4.93;1.50;;;;;;;6.05;100.00;101399.72;6187898;23;20059;-91
2022/12/26 12:42:15;;;;;;;8.73;1.60;;;;;;;5.97;100.00;101396.47;6184835;22;20287;-95
2022/12/26 12:45:09;;;;;;;9.43;1.45;;;;;;;5.99;100.00;101407.72;6191442;23;20020;-95
2022/12/26 12:48:23;;;;;;;6.03;1.42;;;;;;;6.03;100.00;101414.25;6190727;22;20044;-95
2022/12/26 12:51:07;;;;;;;6.13;1.52;;;;;;;6.08;100.00;101416.28;6201899;23;20028;-94
2022/12/26 12:54:01;;;;;;;6.80;1.40;;;;;;;5.98;100.00;101411.38;6206371;23;20015;-93
2022/12/26 12:57:02;;;;;;;6.40;1.20;;;;;;;5.98;100.00;101411.38;6205388;23;20086;-94
2022/12/26 12:59:42;;;;;;;6.60;0.97;;;;;;;5.80;100.00;101410.25;6206168;23;20264;-93
2022/12/26 13:02:40;;;;;;;6.20;0.80;;;;;;;5.67;100.00;101420.91;6202687;23;20024;-93
2022/12/26 13:05:24;;;;;;;7.47;1.00;;;;;;;5.76;100.00;101438.28;6118187;23;20013;-92
2022/12/26 13:08:05;;;;;;;6.25;0.80;;;;;;;5.52;100.00;101429.97;6193196;23;20009;-90
2022/12/26 13:10:46;;;;;;;7.22;1.13;;;;;;;5.48;100.00;101427.94;6193809;23;20005;-92
2022/12/26 13:13:41;;;;;;;5.00;1.00;;;;;;;5.42;100.00;101440.22;6193909;23;20004;-90
2022/12/26 13:16:14;;;;;;;6.43;0.80;;;;;;;5.28;100.00;101426.97;6184253;23;20245;-90
2022/12/26 13:18:48;;;;;;;7.50;1.00;;;;;;;5.22;100.00;101434.94;6183874;23;20005;-90
2022/12/26 13:21:14;;;;;;;6.95;0.88;;;;;;;5.18;100.00;101431.06;6184588;23;20076;-92
2022/12/26 13:26:47;;;;;;;7.07;1.00;;;;;;;5.17;100.00;101440.06;6184945;23;20075;-94
2022/12/26 13:29:17;;;;;;;4.57;1.08;;;;;;;5.21;100.00;101444.75;6186024;23;20001;-93
2022/12/26 13:31:43;;;;;;;6.83;1.00;;;;;;;5.24;100.00;101440.84;6184232;23;20019;-92
2022/12/26 13:34:17;;;;;;;8.07;1.45;;;;;;;5.37;100.00;101451.50;6184153;23;20550;-92
2022/12/26 13:36:51;;;;;;;3.22;1.10;;;;;;;5.41;100.00;101459.84;6184012;23;20017;-92
2022/12/26 13:39:26;;;;;;;5.28;0.90;;;;;;;5.44;100.00;101456.78;6184193;23;20035;-90
2022/12/26 13:44:51;;;;;;;7.60;0.90;;;;;;;5.48;100.00;101457.19;6183115;23;20335;-91
2022/12/26 13:47:37;;;;;;;5.35;0.95;;;;;;;5.49;100.00;101472.09;6182330;23;20394;-90
2022/12/26 13:50:45;;;;;;;5.03;1.00;;;;;;;5.52;100.00;101466.38;6182892;23;20047;-91
2022/12/26 13:53:29;;;;;;;5.68;1.10;;;;;;;5.58;100.00;101469.03;6171720;23;20039;-92
2022/12/26 13:56:03;;;;;;;7.45;1.20;;;;;;;5.60;100.00;101471.47;6182919;23;20015;-90
2022/12/26 13:58:41;;;;;;;4.17;0.83;;;;;;;5.56;100.00;101478.25;6183095;23;20004;-90
2022/12/26 14:01:48;;;;;;;4.43;0.70;;;;;;;5.37;100.00;101491.34;6182625;23;20245;-90